Time;durP1;ratioP1;P1;durP2;ratioP2;P2;SDS_P1;SDS_P2;PMS_P1;PMS_P2;Temp;Humidity;BMP_temperature;BMP_pressure;BME280_temperature;BME280_humidity;BME280_pressure;Samples;Min_cycle;Max_cycle;Signal;HPM_P1;HPM_P2
2023/11/25 00:01:02;;;;;;;33.53;5.38;;;8.10;94.50;;;;;;4949008;29;20019;-50
2023/11/25 00:03:28;;;;;;;35.75;5.03;;;8.10;94.40;;;;;;4948951;29;20027;-50
2023/11/25 00:05:54;;;;;;;40.72;5.63;;;8.10;94.40;;;;;;4979603;28;20028;-50
2023/11/25 00:08:20;;;;;;;24.45;4.28;;;8.10;94.50;;;;;;4979710;28;20079;-50
2023/11/25 00:10:47;;;;;;;30.73;4.57;;;8.10;94.50;;;;;;4979241;28;20028;-50
2023/11/25 00:13:14;;;;;;;25.63;5.38;;;8.00;94.40;;;;;;4979489;28;20055;-50
2023/11/25 00:15:40;;;;;;;20.67;4.57;;;8.00;94.50;;;;;;4979012;28;20024;-49
2023/11/25 00:18:06;;;;;;;30.05;4.95;;;8.00;94.50;;;;;;4948507;29;20455;-50
2023/11/25 00:20:31;;;;;;;36.35;4.72;;;8.00;94.40;;;;;;4979387;28;20031;-50
2023/11/25 00:22:57;;;;;;;27.20;4.80;;;8.00;94.40;;;;;;4948824;29;20020;-50
2023/11/25 00:25:27;;;;;;;29.48;4.55;;;8.00;94.50;;;;;;4979395;28;20457;-50
2023/11/25 00:27:52;;;;;;;20.50;4.10;;;8.00;94.50;;;;;;4948759;29;20040;-50
2023/11/25 00:30:18;;;;;;;27.35;4.22;;;8.00;94.50;;;;;;4948588;29;20035;-50
2023/11/25 00:32:44;;;;;;;23.13;3.72;;;7.90;94.60;;;;;;4979288;28;20495;-50
2023/11/25 00:35:10;;;;;;;22.30;4.40;;;7.90;94.60;;;;;;4979466;28;20035;-50
2023/11/25 00:37:36;;;;;;;20.40;4.25;;;7.90;94.60;;;;;;4948321;29;20035;-50
2023/11/25 00:40:09;;;;;;;17.67;3.67;;;7.90;94.60;;;;;;4979488;28;20092;-50
2023/11/25 00:42:35;;;;;;;15.32;3.55;;;7.80;94.60;;;;;;4962294;29;20038;-50
2023/11/25 00:45:00;;;;;;;25.40;4.10;;;7.80;94.70;;;;;;4979308;28;20055;-50
2023/11/25 00:47:27;;;;;;;20.95;4.07;;;7.80;94.70;;;;;;4948451;29;20036;-50
2023/11/25 00:49:53;;;;;;;24.80;3.83;;;7.80;94.70;;;;;;4948373;29;20059;-50
2023/11/25 00:52:19;;;;;;;14.02;3.40;;;7.80;94.80;;;;;;4979253;28;20123;-50
2023/11/25 00:54:45;;;;;;;15.23;4.22;;;7.80;94.80;;;;;;4979470;28;20040;-50
2023/11/25 00:57:11;;;;;;;16.63;3.60;;;7.80;94.80;;;;;;4982142;28;20031;-50
2023/11/25 00:59:36;;;;;;;18.10;4.03;;;7.80;94.80;;;;;;4967596;28;20091;-50
2023/11/25 01:02:02;;;;;;;21.70;3.30;;;7.80;94.90;;;;;;4966194;28;20424;-50
2023/11/25 01:04:27;;;;;;;10.85;3.28;;;7.70;94.90;;;;;;4967550;28;20047;-50
2023/11/25 01:06:53;;;;;;;11.65;3.45;;;7.80;94.90;;;;;;4967537;28;20067;-50
2023/11/25 01:09:19;;;;;;;14.30;3.40;;;7.70;94.80;;;;;;4967747;28;20466;-50
2023/11/25 01:11:48;;;;;;;18.73;4.60;;;7.70;94.90;;;;;;4970932;29;20038;-50
2023/11/25 01:14:13;;;;;;;17.42;3.53;;;7.70;94.90;;;;;;4969816;29;20028;-50
2023/11/25 01:16:39;;;;;;;12.57;2.85;;;7.70;94.80;;;;;;4953658;29;20046;-50
2023/11/25 01:19:05;;;;;;;13.68;3.17;;;7.70;94.90;;;;;;4937685;29;20023;-50
2023/11/25 01:21:31;;;;;;;15.10;3.53;;;7.70;94.90;;;;;;4953635;29;20023;-50
2023/11/25 01:23:56;;;;;;;16.85;3.20;;;7.70;94.90;;;;;;4953633;29;20047;-50
2023/11/25 01:26:22;;;;;;;10.80;2.67;;;7.70;95.00;;;;;;4969588;28;20023;-50
2023/11/25 01:28:48;;;;;;;11.93;3.25;;;7.70;95.00;;;;;;4969631;28;20459;-50
2023/11/25 01:31:14;;;;;;;17.05;3.10;;;7.70;95.00;;;;;;4953456;29;20023;-50
2023/11/25 01:33:42;;;;;;;7.53;2.85;;;7.70;95.00;;;;;;4969372;29;20031;-50
2023/11/25 01:36:11;;;;;;;9.75;2.90;;;7.70;95.00;;;;;;4969468;29;20027;-50
2023/11/25 01:38:37;;;;;;;11.93;2.80;;;7.60;95.00;;;;;;4969065;28;20031;-50
2023/11/25 01:41:04;;;;;;;14.90;2.15;;;7.60;95.00;;;;;;4970530;28;20468;-50
2023/11/25 01:43:30;;;;;;;12.27;2.58;;;7.60;95.00;;;;;;4969132;29;20052;-50
2023/11/25 01:45:57;;;;;;;11.45;2.50;;;7.60;95.00;;;;;;4969264;29;20392;-49
2023/11/25 01:48:23;;;;;;;11.25;2.60;;;7.60;94.90;;;;;;4969138;28;20054;-50
2023/11/25 01:50:49;;;;;;;11.60;2.72;;;7.60;95.00;;;;;;4953026;28;20502;-50
2023/11/25 01:53:17;;;;;;;8.77;2.25;;;7.60;95.00;;;;;;4968997;29;20031;-50
2023/11/25 01:55:42;;;;;;;8.52;2.42;;;7.60;95.00;;;;;;4969113;28;20115;-50
2023/11/25 01:58:08;;;;;;;17.23;3.85;;;7.60;95.00;;;;;;4952962;29;20031;-50
2023/11/25 02:00:37;;;;;;;13.40;2.08;;;7.60;95.10;;;;;;4968948;28;20560;-50
2023/11/25 02:03:05;;;;;;;10.77;2.40;;;7.50;95.00;;;;;;4968971;28;20055;-50
2023/11/25 02:05:31;;;;;;;10.98;2.13;;;7.50;95.00;;;;;;4968868;28;20055;-50
2023/11/25 02:07:56;;;;;;;9.63;2.65;;;7.50;95.10;;;;;;4968825;28;20031;-50
2023/11/25 02:10:22;;;;;;;12.70;2.45;;;7.50;95.00;;;;;;4968844;28;20034;-50
2023/11/25 02:12:48;;;;;;;14.60;2.30;;;7.50;95.00;;;;;;4970038;29;20035;-50
2023/11/25 02:15:14;;;;;;;9.65;2.35;;;7.50;95.00;;;;;;4968623;29;20050;-50
2023/11/25 02:17:44;;;;;;;8.95;2.88;;;7.50;95.00;;;;;;4968694;29;20027;-50
2023/11/25 02:20:12;;;;;;;8.65;2.30;;;7.40;95.00;;;;;;4952550;29;20059;-50
2023/11/25 02:22:37;;;;;;;8.98;2.10;;;7.40;95.00;;;;;;4968358;28;20023;-50
2023/11/25 02:25:04;;;;;;;8.23;2.15;;;7.40;95.10;;;;;;4969618;28;20039;-50
2023/11/25 02:27:30;;;;;;;7.22;2.10;;;7.40;95.10;;;;;;4968471;28;20066;-50
2023/11/25 02:29:55;;;;;;;8.50;2.40;;;7.40;95.10;;;;;;4968581;29;20039;-50
2023/11/25 02:32:21;;;;;;;10.65;2.25;;;7.40;95.10;;;;;;4969716;28;20023;-50
2023/11/25 02:34:47;;;;;;;4.97;1.83;;;7.40;95.10;;;;;;4969649;28;20059;-50
2023/11/25 02:37:15;;;;;;;7.25;2.10;;;7.40;95.20;;;;;;4969218;28;20098;-50
2023/11/25 02:39:41;;;;;;;4.78;1.70;;;7.30;95.20;;;;;;4969463;28;20023;-50
2023/11/25 02:42:09;;;;;;;6.40;1.77;;;7.30;95.20;;;;;;4968016;29;20051;-50
2023/11/25 02:44:35;;;;;;;7.88;1.85;;;7.30;95.20;;;;;;4952265;29;20032;-50
2023/11/25 02:47:01;;;;;;;7.88;1.92;;;7.30;95.20;;;;;;4968132;28;20034;-50
2023/11/25 02:49:27;;;;;;;6.45;2.42;;;7.30;95.20;;;;;;4968097;29;20028;-50
2023/11/25 02:51:55;;;;;;;4.13;2.00;;;7.30;95.20;;;;;;4969238;29;20031;-50
2023/11/25 02:54:22;;;;;;;7.45;2.65;;;7.30;95.20;;;;;;4967836;29;20054;-50
2023/11/25 02:56:47;;;;;;;12.00;2.75;;;7.30;95.20;;;;;;4967826;29;20085;-50
2023/11/25 02:59:13;;;;;;;6.07;2.58;;;7.30;95.30;;;;;;4967795;29;20031;-50
2023/11/25 03:01:47;;;;;;;7.60;2.33;;;7.30;95.30;;;;;;4969091;28;20114;-50
2023/11/25 03:04:14;;;;;;;6.73;2.73;;;7.30;95.20;;;;;;4952951;28;20443;-50
2023/11/25 03:06:40;;;;;;;13.23;2.92;;;7.30;95.20;;;;;;4967841;28;20275;-50
2023/11/25 03:09:09;;;;;;;9.70;3.15;;;7.30;95.20;;;;;;4967871;28;20035;-50
2023/11/25 03:11:35;;;;;;;7.32;2.78;;;7.30;95.20;;;;;;4967517;28;20027;-50
2023/11/25 03:14:00;;;;;;;7.65;3.03;;;7.30;95.20;;;;;;4951265;28;20403;-50
2023/11/25 03:16:26;;;;;;;6.70;2.72;;;7.30;95.20;;;;;;4967418;28;20035;-50
2023/11/25 03:18:51;;;;;;;6.00;3.20;;;7.20;95.30;;;;;;4967359;29;20097;-50
2023/11/25 03:21:18;;;;;;;8.90;2.63;;;7.20;95.30;;;;;;4968582;28;20015;-50
2023/11/25 03:23:44;;;;;;;5.85;2.38;;;7.20;95.40;;;;;;4951671;29;20039;-50
2023/11/25 03:26:11;;;;;;;6.43;2.70;;;7.20;95.40;;;;;;4951440;29;20019;-50
2023/11/25 03:28:37;;;;;;;7.63;2.83;;;7.20;95.40;;;;;;4968605;28;20035;-50
2023/11/25 03:31:07;;;;;;;4.72;2.58;;;7.20;95.40;;;;;;4966975;28;20038;-50
2023/11/25 03:33:33;;;;;;;9.15;3.58;;;7.20;95.30;;;;;;4967193;29;20039;-50
2023/11/25 03:35:59;;;;;;;5.90;2.47;;;7.20;95.40;;;;;;4967383;28;20038;-50
2023/11/25 03:38:24;;;;;;;6.72;2.75;;;7.20;95.40;;;;;;4951002;29;20059;-50
2023/11/25 03:40:52;;;;;;;6.53;2.60;;;7.20;95.40;;;;;;4967171;28;20031;-50
2023/11/25 03:43:21;;;;;;;6.28;2.78;;;7.10;95.40;;;;;;4968083;29;20027;-50
2023/11/25 03:45:47;;;;;;;9.13;3.30;;;7.20;95.40;;;;;;4966908;29;20084;-50
2023/11/25 03:48:14;;;;;;;4.07;2.28;;;7.20;95.40;;;;;;4968938;28;20033;-50
2023/11/25 03:50:39;;;;;;;6.13;2.60;;;7.20;95.40;;;;;;4968211;29;20090;-50
2023/11/25 03:53:05;;;;;;;6.15;2.35;;;7.20;95.40;;;;;;4968416;28;20439;-50
2023/11/25 03:55:30;;;;;;;5.25;2.50;;;7.20;95.40;;;;;;4966961;29;20070;-50
2023/11/25 03:57:56;;;;;;;9.65;3.25;;;7.20;95.50;;;;;;4968214;28;20031;-50
2023/11/25 04:00:22;;;;;;;7.97;2.63;;;7.20;95.50;;;;;;4966477;28;20063;-50
2023/11/25 04:02:48;;;;;;;4.68;2.20;;;7.10;95.40;;;;;;4967393;28;20031;-50
2023/11/25 04:05:14;;;;;;;7.30;2.25;;;7.20;95.50;;;;;;4967802;28;20027;-50
2023/11/25 04:07:40;;;;;;;5.30;2.15;;;7.10;95.40;;;;;;4968098;28;20027;-50
2023/11/25 04:10:12;;;;;;;3.42;2.20;;;7.10;95.30;;;;;;4966496;29;20042;-50
2023/11/25 04:12:44;;;;;;;3.78;2.03;;;7.20;95.40;;;;;;4968094;28;20027;-49
2023/11/25 04:15:13;;;;;;;7.43;2.42;;;7.10;95.30;;;;;;4967838;28;20099;-50
2023/11/25 04:17:39;;;;;;;3.95;2.15;;;7.10;95.30;;;;;;4951073;29;20059;-50
2023/11/25 04:20:17;;;;;;;3.50;1.85;;;7.10;95.40;;;;;;4966725;28;20027;-50
2023/11/25 04:22:44;;;;;;;5.03;2.42;;;7.10;95.40;;;;;;4967902;28;20036;-50
2023/11/25 04:25:13;;;;;;;4.47;1.88;;;7.10;95.40;;;;;;4966385;28;20038;-50
2023/11/25 04:27:40;;;;;;;9.10;2.20;;;7.10;95.40;;;;;;4966502;29;20027;-50
2023/11/25 04:30:09;;;;;;;5.43;1.90;;;7.10;95.40;;;;;;4950777;29;20031;-50
2023/11/25 04:32:36;;;;;;;4.10;2.22;;;7.10;95.40;;;;;;4967858;28;20031;-50
2023/11/25 04:35:04;;;;;;;5.05;2.30;;;7.10;95.30;;;;;;4950316;29;20039;-50
2023/11/25 04:37:31;;;;;;;4.22;2.40;;;7.10;95.30;;;;;;4967540;28;20173;-50
2023/11/25 04:39:56;;;;;;;4.45;2.47;;;7.10;95.30;;;;;;4966520;29;20027;-61
2023/11/25 04:42:22;;;;;;;6.65;2.20;;;7.10;95.30;;;;;;4950474;28;20110;-61
2023/11/25 04:44:47;;;;;;;7.45;2.40;;;7.10;95.30;;;;;;4970174;28;20046;-61
2023/11/25 04:47:13;;;;;;;6.32;2.63;;;7.10;95.30;;;;;;4970423;28;20514;-61
2023/11/25 04:49:39;;;;;;;4.72;2.15;;;7.10;95.30;;;;;;4970167;29;20038;-61
2023/11/25 04:52:05;;;;;;;5.38;2.50;;;7.10;95.30;;;;;;4971248;29;20118;-61
2023/11/25 04:54:32;;;;;;;7.50;2.55;;;7.00;95.30;;;;;;4971587;28;20027;-61
2023/11/25 04:56:58;;;;;;;3.60;2.08;;;7.10;95.30;;;;;;4971277;28;20038;-61
2023/11/25 04:59:24;;;;;;;4.43;2.05;;;7.00;95.30;;;;;;4970167;28;20112;-61
2023/11/25 05:01:49;;;;;;;7.07;2.45;;;7.00;95.30;;;;;;4970052;28;20397;-61
2023/11/25 05:04:15;;;;;;;5.20;2.00;;;7.00;95.30;;;;;;4971212;29;20050;-61
2023/11/25 05:06:43;;;;;;;5.35;2.22;;;7.00;95.30;;;;;;4969855;29;20027;-61
2023/11/25 05:09:10;;;;;;;4.47;2.15;;;7.00;95.30;;;;;;4971333;28;20050;-62
2023/11/25 05:11:39;;;;;;;3.88;2.00;;;7.00;95.50;;;;;;4971004;28;20114;-61
2023/11/25 05:14:05;;;;;;;7.25;2.50;;;7.00;95.50;;;;;;4971033;28;20488;-61
2023/11/25 05:16:31;;;;;;;6.75;2.30;;;7.00;95.60;;;;;;4969790;29;20031;-61
2023/11/25 05:18:56;;;;;;;5.07;2.17;;;7.00;95.70;;;;;;4969740;28;20049;-62
2023/11/25 05:21:22;;;;;;;6.25;2.30;;;7.00;95.60;;;;;;4969545;28;20027;-61
2023/11/25 05:23:49;;;;;;;7.22;2.22;;;7.00;95.50;;;;;;4969679;29;20062;-61
2023/11/25 05:26:15;;;;;;;7.78;2.03;;;6.90;95.60;;;;;;4953609;29;20495;-60
2023/11/25 05:28:40;;;;;;;5.45;2.00;;;7.00;95.70;;;;;;4969489;28;20039;-61
2023/11/25 05:31:06;;;;;;;3.15;1.95;;;6.90;95.70;;;;;;4953628;29;20051;-61
2023/11/25 05:33:33;;;;;;;3.13;2.10;;;6.90;95.60;;;;;;4969477;28;20070;-61
2023/11/25 05:35:59;;;;;;;4.88;2.00;;;6.90;95.70;;;;;;4970762;29;20031;-61
2023/11/25 05:38:26;;;;;;;8.27;2.55;;;6.90;95.70;;;;;;4953343;29;20027;-61
2023/11/25 05:40:52;;;;;;;3.35;1.70;;;6.90;95.70;;;;;;4953586;29;20102;-61
2023/11/25 05:43:18;;;;;;;7.82;2.30;;;6.90;95.70;;;;;;4969347;28;20020;-61
2023/11/25 05:45:46;;;;;;;6.18;2.15;;;6.90;95.60;;;;;;4970482;28;20038;-50
2023/11/25 05:48:12;;;;;;;3.92;2.17;;;6.90;95.70;;;;;;4969191;29;20102;-50
2023/11/25 05:50:38;;;;;;;4.03;2.28;;;6.90;95.60;;;;;;4969260;28;20031;-50
2023/11/25 05:53:03;;;;;;;4.50;2.35;;;6.90;95.70;;;;;;4970043;28;20079;-50
2023/11/25 05:55:29;;;;;;;4.63;2.25;;;6.90;95.70;;;;;;4969919;28;20039;-50
2023/11/25 05:57:55;;;;;;;3.67;1.85;;;6.90;95.60;;;;;;4969010;28;20034;-50
2023/11/25 06:00:23;;;;;;;3.95;2.08;;;6.90;95.60;;;;;;4969115;28;20491;-50
2023/11/25 06:02:49;;;;;;;4.25;1.90;;;6.90;95.60;;;;;;4953183;28;20030;-50
2023/11/25 06:05:15;;;;;;;4.32;2.10;;;6.90;95.90;;;;;;4968773;29;20035;-50
2023/11/25 06:07:40;;;;;;;4.20;2.22;;;6.90;95.60;;;;;;4968831;28;20034;-50
2023/11/25 06:10:07;;;;;;;4.45;2.15;;;6.90;95.60;;;;;;4952874;29;20031;-50
2023/11/25 06:12:32;;;;;;;5.68;2.17;;;6.90;95.60;;;;;;4970009;28;20058;-50
2023/11/25 06:14:59;;;;;;;6.70;2.08;;;6.80;95.60;;;;;;4968804;28;20031;-50
2023/11/25 06:17:24;;;;;;;4.00;1.98;;;6.80;95.60;;;;;;4968436;28;20051;-50
2023/11/25 06:19:53;;;;;;;5.28;1.80;;;6.80;95.60;;;;;;4969839;28;20583;-50
2023/11/25 06:22:20;;;;;;;3.13;1.67;;;6.80;95.60;;;;;;4952666;29;20033;-50
2023/11/25 06:24:46;;;;;;;4.88;1.92;;;6.80;95.60;;;;;;4936963;29;20119;-50
2023/11/25 06:27:11;;;;;;;3.70;1.65;;;6.80;95.60;;;;;;4969734;29;20031;-50
2023/11/25 06:29:39;;;;;;;2.05;1.30;;;6.80;95.60;;;;;;4936624;29;20035;-50
2023/11/25 06:32:05;;;;;;;3.83;1.40;;;6.70;95.60;;;;;;4952656;29;20027;-50
2023/11/25 06:34:31;;;;;;;3.88;1.80;;;6.70;95.60;;;;;;4952341;28;20027;-50
2023/11/25 06:36:56;;;;;;;3.67;1.52;;;6.70;95.90;;;;;;4969360;28;20040;-50
2023/11/25 06:39:23;;;;;;;4.78;1.90;;;6.70;95.60;;;;;;4968119;28;20039;-49
2023/11/25 06:41:49;;;;;;;3.85;1.90;;;6.70;95.70;;;;;;4969401;28;20023;-50
2023/11/25 06:44:16;;;;;;;4.95;1.80;;;6.70;95.70;;;;;;4968119;29;20070;-50
2023/11/25 06:46:42;;;;;;;5.93;1.80;;;6.70;95.70;;;;;;4952160;28;20034;-50
2023/11/25 06:49:08;;;;;;;5.85;2.08;;;6.70;95.70;;;;;;4967871;29;20031;-50
2023/11/25 06:51:34;;;;;;;3.05;1.70;;;6.60;95.60;;;;;;4951978;29;20078;-50
2023/11/25 06:53:59;;;;;;;4.03;1.85;;;6.60;95.60;;;;;;4950200;28;20038;-50
2023/11/25 06:56:26;;;;;;;3.75;1.50;;;6.60;95.60;;;;;;4945694;28;20446;-49
2023/11/25 06:58:52;;;;;;;3.05;1.65;;;6.60;95.60;;;;;;4974888;28;20046;-50
2023/11/25 07:01:21;;;;;;;3.42;1.63;;;6.60;95.60;;;;;;4978952;28;20038;-50
2023/11/25 07:03:48;;;;;;;3.67;1.63;;;6.60;95.60;;;;;;4962719;28;20120;-50
2023/11/25 07:06:16;;;;;;;3.88;1.60;;;6.60;95.60;;;;;;4982515;28;20107;-50
2023/11/25 07:08:42;;;;;;;5.68;1.70;;;6.60;95.60;;;;;;4962746;28;20055;-50
2023/11/25 07:11:10;;;;;;;3.65;1.15;;;6.60;95.60;;;;;;4965175;29;20035;-50
2023/11/25 07:13:36;;;;;;;4.97;1.90;;;6.50;95.60;;;;;;4963445;28;20034;-50
2023/11/25 07:16:04;;;;;;;3.80;1.63;;;6.60;95.60;;;;;;4972652;28;20066;-50
2023/11/25 07:18:31;;;;;;;3.67;1.42;;;6.60;95.60;;;;;;4978141;28;20034;-50
2023/11/25 07:20:59;;;;;;;5.55;1.88;;;6.50;95.60;;;;;;4978662;28;20042;-50
2023/11/25 07:23:25;;;;;;;5.90;1.80;;;6.50;95.60;;;;;;4978451;28;20203;-52
2023/11/25 07:25:51;;;;;;;5.18;1.80;;;6.50;95.60;;;;;;4965646;28;20479;-50
2023/11/25 07:28:16;;;;;;;2.45;1.67;;;6.50;95.60;;;;;;4965606;29;20034;-50
2023/11/25 07:30:43;;;;;;;3.38;1.77;;;6.50;95.60;;;;;;4968252;29;20035;-50
2023/11/25 07:33:09;;;;;;;5.18;1.55;;;6.50;95.70;;;;;;4951133;29;20027;-50
2023/11/25 07:35:36;;;;;;;6.53;2.00;;;6.50;95.60;;;;;;4951317;29;20035;-50
2023/11/25 07:38:02;;;;;;;4.53;1.80;;;6.50;95.70;;;;;;4968154;28;20027;-50
2023/11/25 07:40:28;;;;;;;4.00;1.77;;;6.50;95.70;;;;;;4941522;29;20083;-50
2023/11/25 07:42:54;;;;;;;2.95;1.77;;;6.50;95.70;;;;;;4980608;28;20027;-51
2023/11/25 07:45:19;;;;;;;3.22;2.00;;;6.50;95.70;;;;;;4954113;28;20468;-50
2023/11/25 07:47:45;;;;;;;5.60;2.00;;;6.50;95.70;;;;;;4947309;29;20038;-50
2023/11/25 07:50:11;;;;;;;4.15;1.67;;;6.50;95.70;;;;;;4946821;29;20091;-50
2023/11/25 07:52:37;;;;;;;3.13;1.52;;;6.50;95.70;;;;;;4947130;29;20095;-50
2023/11/25 07:55:04;;;;;;;4.57;1.40;;;6.50;95.70;;;;;;4961575;29;20055;-50
2023/11/25 07:57:33;;;;;;;7.40;1.77;;;6.50;95.70;;;;;;4961366;29;20043;-50
2023/11/25 07:59:58;;;;;;;4.32;1.55;;;6.50;95.70;;;;;;4946763;29;20032;-50
2023/11/25 08:02:24;;;;;;;4.57;1.65;;;6.50;95.70;;;;;;4946661;29;20027;-50
2023/11/25 08:04:50;;;;;;;3.20;1.40;;;6.50;95.70;;;;;;4962245;29;20051;-50
2023/11/25 08:07:16;;;;;;;5.30;1.55;;;6.50;95.70;;;;;;4947311;29;20107;-50
2023/11/25 08:09:42;;;;;;;2.65;1.70;;;6.50;95.70;;;;;;4963532;29;20396;-50
2023/11/25 08:12:08;;;;;;;2.50;1.55;;;6.50;95.70;;;;;;4963214;29;20024;-50
2023/11/25 08:14:34;;;;;;;2.45;1.30;;;6.50;95.70;;;;;;4961303;29;20039;-50
2023/11/25 08:16:59;;;;;;;3.80;1.30;;;6.50;95.70;;;;;;4961762;29;20388;-50
2023/11/25 08:19:25;;;;;;;4.15;1.75;;;6.50;95.70;;;;;;4973682;28;20027;-50
2023/11/25 08:21:52;;;;;;;3.60;1.35;;;6.50;95.70;;;;;;4980086;28;20027;-50
2023/11/25 08:24:18;;;;;;;2.67;1.40;;;6.50;95.70;;;;;;4975074;28;20033;-50
2023/11/25 08:26:44;;;;;;;3.22;1.20;;;6.50;95.70;;;;;;4978835;28;20024;-50
2023/11/25 08:29:11;;;;;;;4.05;1.80;;;6.50;95.70;;;;;;4976298;28;20030;-50
2023/11/25 08:31:37;;;;;;;3.10;1.33;;;6.40;95.70;;;;;;4945865;29;20035;-50
2023/11/25 08:34:09;;;;;;;4.00;1.67;;;6.40;95.70;;;;;;4966518;28;20041;-50
2023/11/25 08:36:44;;;;;;;3.97;1.67;;;6.40;95.70;;;;;;4967355;28;20114;-50
2023/11/25 08:39:15;;;;;;;2.58;1.42;;;6.40;95.70;;;;;;4980820;28;20031;-50
2023/11/25 08:41:44;;;;;;;5.45;1.52;;;6.40;95.70;;;;;;4981526;28;20028;-50
2023/11/25 08:44:13;;;;;;;2.67;1.48;;;6.50;95.70;;;;;;4967686;28;20035;-50
2023/11/25 08:46:40;;;;;;;3.00;1.63;;;6.40;95.60;;;;;;4967413;28;20114;-50
2023/11/25 08:49:07;;;;;;;4.30;1.52;;;6.40;95.60;;;;;;4967244;28;20027;-50
2023/11/25 08:51:33;;;;;;;2.42;1.38;;;6.50;95.60;;;;;;4962708;28;20079;-50
2023/11/25 08:53:58;;;;;;;1.75;1.13;;;6.40;95.50;;;;;;4979146;28;20487;-50
2023/11/25 08:56:25;;;;;;;3.22;1.23;;;6.40;95.50;;;;;;4979089;28;20031;-50
2023/11/25 08:58:51;;;;;;;2.13;1.40;;;6.40;95.40;;;;;;4966004;28;20066;-50
2023/11/25 09:01:16;;;;;;;3.28;1.35;;;6.40;95.50;;;;;;4981762;28;20087;-50
2023/11/25 09:03:42;;;;;;;5.75;1.80;;;6.40;95.50;;;;;;4980904;28;20059;-50
2023/11/25 09:06:08;;;;;;;5.60;1.85;;;6.40;95.50;;;;;;4982000;28;20031;-50
2023/11/25 09:08:35;;;;;;;3.90;1.63;;;6.40;95.50;;;;;;4965693;29;20070;-50
2023/11/25 09:11:01;;;;;;;6.50;1.88;;;6.40;95.50;;;;;;4993679;28;20114;-50
2023/11/25 09:13:26;;;;;;;8.95;1.92;;;6.40;95.50;;;;;;4980232;28;20031;-50
2023/11/25 09:15:52;;;;;;;5.70;1.70;;;6.40;95.50;;;;;;4982402;28;20114;-50
2023/11/25 09:18:18;;;;;;;13.25;2.50;;;6.40;95.50;;;;;;4990264;28;20055;-50
2023/11/25 09:20:44;;;;;;;9.35;2.17;;;6.40;95.50;;;;;;4979492;28;20024;-51
2023/11/25 09:23:11;;;;;;;15.35;2.92;;;6.50;95.50;;;;;;4969299;28;20033;-51
2023/11/25 09:25:36;;;;;;;8.98;2.13;;;6.50;95.40;;;;;;4971395;28;20035;-50
2023/11/25 09:28:03;;;;;;;15.55;2.40;;;6.50;95.40;;;;;;4984441;28;20122;-50
2023/11/25 09:30:29;;;;;;;19.20;3.28;;;6.50;95.50;;;;;;4983050;28;20035;-51
2023/11/25 09:32:54;;;;;;;24.65;3.65;;;6.60;95.40;;;;;;4985333;28;20082;-51
2023/11/25 09:35:21;;;;;;;29.75;4.15;;;6.60;95.40;;;;;;4975202;28;20045;-51
2023/11/25 09:37:48;;;;;;;44.00;6.90;;;6.60;95.60;;;;;;4970900;28;20070;-49
2023/11/25 09:40:14;;;;;;;46.22;6.90;;;6.60;95.70;;;;;;4980281;28;20023;-51
2023/11/25 09:42:42;;;;;;;69.95;8.15;;;6.70;95.70;;;;;;4970541;28;20027;-51
2023/11/25 09:45:09;;;;;;;59.40;8.30;;;6.70;95.70;;;;;;4965180;28;20066;-50
2023/11/25 09:47:35;;;;;;;70.47;7.95;;;6.70;95.70;;;;;;4964052;28;20039;-51
2023/11/25 09:50:01;;;;;;;95.22;10.35;;;6.80;95.80;;;;;;4970957;28;20066;-51
2023/11/25 09:52:28;;;;;;;107.32;11.73;;;6.70;95.70;;;;;;4972488;28;20027;-51
2023/11/25 09:54:57;;;;;;;105.03;14.15;;;6.80;95.90;;;;;;4980770;28;20111;-50
2023/11/25 09:57:23;;;;;;;119.22;13.40;;;6.80;95.80;;;;;;4971746;28;20030;-51
2023/11/25 09:59:49;;;;;;;117.78;12.48;;;6.80;95.90;;;;;;4953169;29;20091;-50
2023/11/25 10:02:16;;;;;;;93.18;11.13;;;6.90;96.00;;;;;;4966102;28;20042;-51
2023/11/25 10:04:42;;;;;;;115.00;12.65;;;6.90;95.90;;;;;;4968337;28;20059;-51
2023/11/25 10:07:09;;;;;;;103.28;11.45;;;6.90;96.00;;;;;;4967095;28;20026;-51
2023/11/25 10:09:39;;;;;;;129.25;14.55;;;7.00;96.10;;;;;;4970148;28;20051;-51
2023/11/25 10:12:07;;;;;;;123.32;14.05;;;7.00;96.10;;;;;;4972301;28;20031;-51
2023/11/25 10:14:33;;;;;;;145.70;16.27;;;7.00;96.10;;;;;;4965455;28;20039;-51
2023/11/25 10:17:19;;;;;;;151.63;16.70;;;7.10;96.40;;;;;;4967398;28;20059;-50
2023/11/25 10:19:46;;;;;;;;;;;7.10;96.10;;;;;;4980286;28;20035;-50
2023/11/25 10:22:12;;;;;;;138.63;15.32;;;7.20;96.00;;;;;;4965005;28;19918;-51
2023/11/25 10:24:50;;;;;;;153.73;16.67;;;7.20;96.00;;;;;;4982475;28;20046;-50
2023/11/25 10:27:19;;;;;;;184.15;19.15;;;7.20;95.90;;;;;;4963009;28;20038;-51
2023/11/25 10:29:46;;;;;;;171.35;18.55;;;7.30;95.80;;;;;;4969649;28;20042;-51
2023/11/25 10:32:11;;;;;;;184.50;18.60;;;7.30;95.80;;;;;;4993743;28;20086;-51
2023/11/25 10:34:37;;;;;;;210.93;19.13;;;7.30;95.80;;;;;;4971719;28;20031;-51
2023/11/25 10:37:06;;;;;;;191.00;18.42;;;7.40;95.80;;;;;;4981890;28;20031;-51
2023/11/25 10:39:33;;;;;;;214.43;19.98;;;7.40;95.80;;;;;;4967860;28;20471;-51
2023/11/25 10:41:58;;;;;;;198.75;20.45;;;7.40;95.80;;;;;;4964002;28;20106;-51
2023/11/25 10:44:24;;;;;;;205.70;21.25;;;7.40;95.90;;;;;;4966561;28;20031;-51
2023/11/25 10:46:55;;;;;;;187.48;20.15;;;7.50;95.80;;;;;;4967127;28;20034;-51
2023/11/25 10:49:21;;;;;;;177.73;22.45;;;7.50;95.80;;;;;;4972928;28;20046;-50
2023/11/25 10:51:47;;;;;;;202.27;21.15;;;7.60;95.80;;;;;;4967396;28;20090;-51
2023/11/25 10:54:12;;;;;;;246.15;22.98;;;7.50;95.70;;;;;;4978185;28;20042;-51
2023/11/25 10:56:38;;;;;;;227.63;23.67;;;7.60;95.70;;;;;;4956066;29;20404;-51
2023/11/25 10:59:05;;;;;;;193.45;22.70;;;7.60;95.80;;;;;;4992613;28;20038;-51
2023/11/25 11:01:31;;;;;;;167.38;19.88;;;7.60;95.60;;;;;;4970138;28;20078;-51
2023/11/25 11:04:05;;;;;;;207.63;21.08;;;7.60;95.40;;;;;;4970109;28;20051;-51
2023/11/25 11:06:35;;;;;;;167.60;19.17;;;7.60;95.60;;;;;;4969550;28;20030;-51
2023/11/25 11:09:03;;;;;;;216.82;20.90;;;7.60;95.50;;;;;;4981743;28;20031;-50
2023/11/25 11:11:45;;;;;;;185.80;19.65;;;7.60;95.50;;;;;;4964764;28;20039;-51
2023/11/25 11:14:14;;;;;;;138.38;17.73;;;7.70;95.30;;;;;;4979892;28;20043;-51
2023/11/25 11:16:40;;;;;;;183.93;20.17;;;7.70;95.30;;;;;;4961992;28;20027;-51
2023/11/25 11:19:09;;;;;;;148.75;18.77;;;7.70;95.30;;;;;;4982599;28;20046;-51
2023/11/25 11:21:36;;;;;;;144.65;18.38;;;7.70;95.20;;;;;;4967604;28;20031;-51
2023/11/25 11:24:02;;;;;;;141.90;18.33;;;7.70;94.90;;;;;;4987052;28;20043;-51
2023/11/25 11:26:30;;;;;;;189.65;20.92;;;7.70;94.80;;;;;;4981426;28;20051;-51
2023/11/25 11:29:25;;;;;;;195.40;20.85;;;7.70;94.80;;;;;;4981141;28;20046;-51
2023/11/25 11:32:06;;;;;;;175.93;21.30;;;7.70;95.00;;;;;;4963712;28;20042;-51
2023/11/25 11:34:33;;;;;;;176.23;20.08;;;7.70;94.90;;;;;;4966204;28;20035;-51
2023/11/25 11:37:00;;;;;;;181.00;19.60;;;7.70;94.80;;;;;;4983417;28;20095;-51
2023/11/25 11:39:50;;;;;;;192.70;19.05;;;7.70;94.90;;;;;;4974836;28;20031;-51
2023/11/25 11:42:56;;;;;;;182.57;24.40;;;7.80;94.80;;;;;;4973569;28;20034;-51
2023/11/25 11:45:26;;;;;;;241.23;25.95;;;7.80;94.80;;;;;;4974211;28;20126;-51
2023/11/25 11:47:56;;;;;;;259.25;26.95;;;7.80;94.80;;;;;;4974052;28;20038;-51
2023/11/25 11:50:32;;;;;;;243.90;25.38;;;7.90;94.80;;;;;;4964820;28;20035;-51
2023/11/25 11:53:04;;;;;;;269.20;28.20;;;7.90;94.90;;;;;;4964535;28;20039;-51
2023/11/25 11:55:55;;;;;;;254.70;25.63;;;7.90;94.90;;;;;;4962577;28;20095;-51
2023/11/25 11:58:22;;;;;;;220.35;26.05;;;7.90;94.80;;;;;;4965037;28;20101;-51
2023/11/25 12:01:05;;;;;;;241.63;25.02;;;7.90;94.70;;;;;;4977296;28;20120;-51
2023/11/25 12:03:31;;;;;;;191.13;23.75;;;8.00;94.80;;;;;;4966579;28;20372;-51
2023/11/25 12:05:56;;;;;;;214.95;22.80;;;8.00;94.80;;;;;;4981308;28;20031;-50
2023/11/25 12:08:22;;;;;;;273.90;27.95;;;8.00;94.70;;;;;;4962288;28;20030;-51
2023/11/25 12:10:48;;;;;;;223.50;27.42;;;8.00;94.80;;;;;;4979305;28;20046;-51
2023/11/25 12:13:38;;;;;;;243.15;24.90;;;8.00;94.70;;;;;;4964597;28;20023;-51
2023/11/25 12:16:05;;;;;;;226.60;24.92;;;8.00;94.70;;;;;;4979803;28;20051;-51
2023/11/25 12:18:34;;;;;;;210.20;24.70;;;8.00;94.70;;;;;;4964926;28;20448;-51
2023/11/25 12:21:06;;;;;;;181.60;24.48;;;8.00;94.70;;;;;;4978545;28;20020;-51
2023/11/25 12:23:33;;;;;;;215.10;25.58;;;8.10;94.60;;;;;;4977874;28;20110;-51
2023/11/25 12:25:59;;;;;;;211.15;24.55;;;8.10;94.50;;;;;;4981233;28;20019;-51
2023/11/25 12:28:25;;;;;;;228.18;25.50;;;8.00;94.50;;;;;;4980770;28;20046;-51
2023/11/25 12:30:51;;;;;;;176.80;22.63;;;8.00;94.60;;;;;;4977378;28;20487;-51
2023/11/25 12:33:17;;;;;;;230.20;25.67;;;8.00;94.50;;;;;;4961368;29;20118;-51
2023/11/25 12:35:45;;;;;;;216.20;23.75;;;8.00;94.60;;;;;;4978771;28;20065;-51
2023/11/25 12:38:12;;;;;;;204.05;23.42;;;8.00;94.70;;;;;;4961798;28;20035;-51
2023/11/25 12:40:38;;;;;;;183.00;21.00;;;8.00;94.60;;;;;;4964159;28;20031;-51
2023/11/25 12:43:08;;;;;;;206.73;22.85;;;8.00;94.60;;;;;;4950997;29;20082;-51
2023/11/25 12:45:43;;;;;;;151.85;19.77;;;8.10;94.60;;;;;;4966228;28;20054;-51
2023/11/25 12:48:11;;;;;;;;;;;8.00;94.60;;;;;;4948469;28;20035;-50